sensor_id;sensor_type;location;lat;lon;timestamp;P1;durP1;ratioP1;P2;durP2;ratioP2
54993;SDS011;40891;47.242;8.648;2023-04-25T00:00:39;7.70;;;1.90;;
54993;SDS011;40891;47.242;8.648;2023-04-25T00:03:05;3.37;;;1.40;;
54993;SDS011;40891;47.242;8.648;2023-04-25T00:05:31;5.17;;;2.00;;
54993;SDS011;40891;47.242;8.648;2023-04-25T00:07:57;5.13;;;1.80;;
54993;SDS011;40891;47.242;8.648;2023-04-25T00:10:23;5.83;;;1.80;;
54993;SDS011;40891;47.242;8.648;2023-04-25T00:12:48;6.07;;;2.00;;
54993;SDS011;40891;47.242;8.648;2023-04-25T00:15:14;6.60;;;1.80;;
54993;SDS011;40891;47.242;8.648;2023-04-25T00:17:39;8.33;;;1.97;;
54993;SDS011;40891;47.242;8.648;2023-04-25T00:20:05;4.17;;;1.83;;
54993;SDS011;40891;47.242;8.648;2023-04-25T00:22:33;7.20;;;2.10;;
54993;SDS011;40891;47.242;8.648;2023-04-25T00:24:59;6.63;;;1.83;;
54993;SDS011;40891;47.242;8.648;2023-04-25T00:27:33;4.03;;;1.70;;
54993;SDS011;40891;47.242;8.648;2023-04-25T00:29:58;7.43;;;2.60;;
54993;SDS011;40891;47.242;8.648;2023-04-25T00:32:24;6.47;;;1.97;;
54993;SDS011;40891;47.242;8.648;2023-04-25T00:34:50;4.93;;;1.73;;
54993;SDS011;40891;47.242;8.648;2023-04-25T00:37:15;4.40;;;1.87;;
54993;SDS011;40891;47.242;8.648;2023-04-25T00:39:40;3.87;;;2.03;;
54993;SDS011;40891;47.242;8.648;2023-04-25T00:42:06;4.27;;;2.00;;
54993;SDS011;40891;47.242;8.648;2023-04-25T00:44:32;4.60;;;1.83;;
54993;SDS011;40891;47.242;8.648;2023-04-25T00:47:00;8.03;;;1.93;;
54993;SDS011;40891;47.242;8.648;2023-04-25T00:49:26;6.37;;;1.87;;
54993;SDS011;40891;47.242;8.648;2023-04-25T00:51:52;4.57;;;1.93;;
54993;SDS011;40891;47.242;8.648;2023-04-25T00:54:17;6.80;;;2.13;;
54993;SDS011;40891;47.242;8.648;2023-04-25T00:56:43;4.97;;;1.90;;
54993;SDS011;40891;47.242;8.648;2023-04-25T00:59:10;6.23;;;1.77;;
54993;SDS011;40891;47.242;8.648;2023-04-25T01:01:35;10.13;;;2.10;;
54993;SDS011;40891;47.242;8.648;2023-04-25T01:04:02;7.43;;;2.07;;
54993;SDS011;40891;47.242;8.648;2023-04-25T01:06:28;8.37;;;2.57;;
54993;SDS011;40891;47.242;8.648;2023-04-25T01:08:53;3.70;;;2.10;;
54993;SDS011;40891;47.242;8.648;2023-04-25T01:11:18;3.63;;;1.70;;
54993;SDS011;40891;47.242;8.648;2023-04-25T01:13:44;3.70;;;1.90;;
54993;SDS011;40891;47.242;8.648;2023-04-25T01:16:10;6.07;;;1.73;;
54993;SDS011;40891;47.242;8.648;2023-04-25T01:18:36;5.53;;;1.90;;
54993;SDS011;40891;47.242;8.648;2023-04-25T01:21:10;10.73;;;1.80;;
54993;SDS011;40891;47.242;8.648;2023-04-25T01:23:41;8.23;;;2.00;;
54993;SDS011;40891;47.242;8.648;2023-04-25T01:26:10;4.73;;;1.83;;
54993;SDS011;40891;47.242;8.648;2023-04-25T01:28:37;4.40;;;1.67;;
54993;SDS011;40891;47.242;8.648;2023-04-25T01:31:06;6.53;;;1.50;;
54993;SDS011;40891;47.242;8.648;2023-04-25T01:33:31;5.43;;;1.70;;
54993;SDS011;40891;47.242;8.648;2023-04-25T01:35:57;5.07;;;1.90;;
54993;SDS011;40891;47.242;8.648;2023-04-25T01:38:22;3.13;;;1.40;;
54993;SDS011;40891;47.242;8.648;2023-04-25T01:40:48;4.03;;;1.60;;
54993;SDS011;40891;47.242;8.648;2023-04-25T01:43:15;9.27;;;2.07;;
54993;SDS011;40891;47.242;8.648;2023-04-25T01:45:41;4.73;;;1.30;;
54993;SDS011;40891;47.242;8.648;2023-04-25T01:48:08;7.53;;;2.00;;
54993;SDS011;40891;47.242;8.648;2023-04-25T01:50:34;5.07;;;1.83;;
54993;SDS011;40891;47.242;8.648;2023-04-25T01:52:59;10.77;;;1.67;;
54993;SDS011;40891;47.242;8.648;2023-04-25T01:55:26;8.70;;;1.70;;
54993;SDS011;40891;47.242;8.648;2023-04-25T01:57:52;6.77;;;1.70;;
54993;SDS011;40891;47.242;8.648;2023-04-25T02:00:17;6.77;;;1.80;;
54993;SDS011;40891;47.242;8.648;2023-04-25T02:02:43;6.20;;;1.73;;
54993;SDS011;40891;47.242;8.648;2023-04-25T02:05:08;5.73;;;1.57;;
54993;SDS011;40891;47.242;8.648;2023-04-25T02:07:33;4.30;;;1.90;;
54993;SDS011;40891;47.242;8.648;2023-04-25T02:09:59;3.97;;;1.50;;
54993;SDS011;40891;47.242;8.648;2023-04-25T02:12:24;8.20;;;1.80;;
54993;SDS011;40891;47.242;8.648;2023-04-25T02:14:51;7.27;;;2.10;;
54993;SDS011;40891;47.242;8.648;2023-04-25T02:17:16;6.60;;;2.17;;
54993;SDS011;40891;47.242;8.648;2023-04-25T02:19:42;6.57;;;1.87;;
54993;SDS011;40891;47.242;8.648;2023-04-25T02:22:08;4.07;;;1.90;;
54993;SDS011;40891;47.242;8.648;2023-04-25T02:24:33;7.57;;;2.03;;
54993;SDS011;40891;47.242;8.648;2023-04-25T02:26:59;10.33;;;1.90;;
54993;SDS011;40891;47.242;8.648;2023-04-25T02:29:25;3.37;;;1.60;;
54993;SDS011;40891;47.242;8.648;2023-04-25T02:31:50;4.80;;;1.60;;
54993;SDS011;40891;47.242;8.648;2023-04-25T02:34:15;6.83;;;1.77;;
54993;SDS011;40891;47.242;8.648;2023-04-25T02:36:41;17.50;;;2.17;;
54993;SDS011;40891;47.242;8.648;2023-04-25T02:39:06;4.70;;;1.97;;
54993;SDS011;40891;47.242;8.648;2023-04-25T02:41:31;5.07;;;1.57;;
54993;SDS011;40891;47.242;8.648;2023-04-25T02:43:57;7.57;;;1.97;;
54993;SDS011;40891;47.242;8.648;2023-04-25T02:46:22;8.07;;;2.00;;
54993;SDS011;40891;47.242;8.648;2023-04-25T02:48:48;4.20;;;1.77;;
54993;SDS011;40891;47.242;8.648;2023-04-25T02:51:13;8.27;;;1.80;;
54993;SDS011;40891;47.242;8.648;2023-04-25T02:53:41;6.10;;;1.90;;
54993;SDS011;40891;47.242;8.648;2023-04-25T02:56:07;6.07;;;2.50;;
54993;SDS011;40891;47.242;8.648;2023-04-25T02:58:32;4.67;;;1.93;;
54993;SDS011;40891;47.242;8.648;2023-04-25T03:00:57;7.47;;;1.50;;
54993;SDS011;40891;47.242;8.648;2023-04-25T03:03:23;4.97;;;1.83;;
54993;SDS011;40891;47.242;8.648;2023-04-25T03:05:48;8.23;;;2.23;;
54993;SDS011;40891;47.242;8.648;2023-04-25T03:08:15;6.60;;;2.17;;
54993;SDS011;40891;47.242;8.648;2023-04-25T03:10:40;5.53;;;1.90;;
54993;SDS011;40891;47.242;8.648;2023-04-25T03:13:06;3.83;;;1.83;;
54993;SDS011;40891;47.242;8.648;2023-04-25T03:15:31;6.03;;;2.10;;
54993;SDS011;40891;47.242;8.648;2023-04-25T03:17:57;6.23;;;2.37;;
54993;SDS011;40891;47.242;8.648;2023-04-25T03:20:22;9.83;;;2.20;;
54993;SDS011;40891;47.242;8.648;2023-04-25T03:22:47;5.27;;;1.73;;
54993;SDS011;40891;47.242;8.648;2023-04-25T03:25:13;9.63;;;2.50;;
54993;SDS011;40891;47.242;8.648;2023-04-25T03:27:38;5.47;;;2.03;;
54993;SDS011;40891;47.242;8.648;2023-04-25T03:30:04;4.60;;;1.53;;
54993;SDS011;40891;47.242;8.648;2023-04-25T03:32:30;4.93;;;2.27;;
54993;SDS011;40891;47.242;8.648;2023-04-25T03:34:55;4.03;;;1.80;;
54993;SDS011;40891;47.242;8.648;2023-04-25T03:37:20;3.43;;;1.70;;
54993;SDS011;40891;47.242;8.648;2023-04-25T03:39:46;4.77;;;2.00;;
54993;SDS011;40891;47.242;8.648;2023-04-25T03:42:11;7.63;;;2.10;;
54993;SDS011;40891;47.242;8.648;2023-04-25T03:44:37;8.87;;;2.23;;
54993;SDS011;40891;47.242;8.648;2023-04-25T03:47:02;6.10;;;2.03;;
54993;SDS011;40891;47.242;8.648;2023-04-25T03:49:27;5.40;;;2.43;;
54993;SDS011;40891;47.242;8.648;2023-04-25T03:51:53;8.97;;;2.00;;
54993;SDS011;40891;47.242;8.648;2023-04-25T03:54:18;5.17;;;2.30;;
54993;SDS011;40891;47.242;8.648;2023-04-25T03:56:43;3.63;;;1.87;;
54993;SDS011;40891;47.242;8.648;2023-04-25T03:59:09;6.90;;;2.00;;
54993;SDS011;40891;47.242;8.648;2023-04-25T04:01:34;5.57;;;1.90;;
54993;SDS011;40891;47.242;8.648;2023-04-25T04:04:00;8.83;;;1.87;;
54993;SDS011;40891;47.242;8.648;2023-04-25T04:06:25;6.80;;;1.70;;
54993;SDS011;40891;47.242;8.648;2023-04-25T04:08:51;7.30;;;1.90;;
54993;SDS011;40891;47.242;8.648;2023-04-25T04:11:16;8.97;;;2.07;;
54993;SDS011;40891;47.242;8.648;2023-04-25T04:13:42;5.80;;;1.80;;
54993;SDS011;40891;47.242;8.648;2023-04-25T04:16:07;7.43;;;1.47;;
54993;SDS011;40891;47.242;8.648;2023-04-25T04:18:32;7.07;;;1.67;;
54993;SDS011;40891;47.242;8.648;2023-04-25T04:20:58;4.07;;;1.60;;
54993;SDS011;40891;47.242;8.648;2023-04-25T04:23:24;4.23;;;1.87;;
54993;SDS011;40891;47.242;8.648;2023-04-25T04:25:49;5.70;;;1.77;;
54993;SDS011;40891;47.242;8.648;2023-04-25T04:28:15;6.87;;;1.80;;
54993;SDS011;40891;47.242;8.648;2023-04-25T04:30:41;3.90;;;1.70;;
54993;SDS011;40891;47.242;8.648;2023-04-25T04:33:07;6.80;;;1.83;;
54993;SDS011;40891;47.242;8.648;2023-04-25T04:35:33;3.63;;;1.90;;
54993;SDS011;40891;47.242;8.648;2023-04-25T04:37:59;7.73;;;2.27;;
54993;SDS011;40891;47.242;8.648;2023-04-25T04:40:24;5.57;;;2.00;;
54993;SDS011;40891;47.242;8.648;2023-04-25T04:42:50;3.83;;;1.80;;
54993;SDS011;40891;47.242;8.648;2023-04-25T04:45:16;6.73;;;2.00;;
54993;SDS011;40891;47.242;8.648;2023-04-25T04:47:41;5.27;;;1.90;;
54993;SDS011;40891;47.242;8.648;2023-04-25T04:50:08;10.27;;;2.37;;
54993;SDS011;40891;47.242;8.648;2023-04-25T04:52:37;2.57;;;1.40;;
54993;SDS011;40891;47.242;8.648;2023-04-25T04:55:03;6.67;;;2.63;;
54993;SDS011;40891;47.242;8.648;2023-04-25T04:57:30;6.93;;;1.87;;
54993;SDS011;40891;47.242;8.648;2023-04-25T04:59:57;4.87;;;2.00;;
54993;SDS011;40891;47.242;8.648;2023-04-25T05:02:24;6.47;;;2.20;;
54993;SDS011;40891;47.242;8.648;2023-04-25T05:04:49;4.33;;;1.90;;
54993;SDS011;40891;47.242;8.648;2023-04-25T05:07:16;3.93;;;1.90;;
54993;SDS011;40891;47.242;8.648;2023-04-25T05:09:42;9.30;;;2.10;;
54993;SDS011;40891;47.242;8.648;2023-04-25T05:12:07;5.50;;;1.87;;
54993;SDS011;40891;47.242;8.648;2023-04-25T05:14:32;4.83;;;1.90;;
54993;SDS011;40891;47.242;8.648;2023-04-25T05:16:58;4.97;;;1.97;;
54993;SDS011;40891;47.242;8.648;2023-04-25T05:19:23;4.40;;;2.00;;
54993;SDS011;40891;47.242;8.648;2023-04-25T05:21:49;9.77;;;1.93;;
54993;SDS011;40891;47.242;8.648;2023-04-25T05:24:14;5.30;;;1.73;;
54993;SDS011;40891;47.242;8.648;2023-04-25T05:26:40;5.50;;;2.20;;
54993;SDS011;40891;47.242;8.648;2023-04-25T05:29:05;7.50;;;1.87;;
54993;SDS011;40891;47.242;8.648;2023-04-25T05:31:31;6.23;;;1.60;;
54993;SDS011;40891;47.242;8.648;2023-04-25T05:33:56;8.13;;;1.40;;
54993;SDS011;40891;47.242;8.648;2023-04-25T05:36:22;5.00;;;1.57;;
54993;SDS011;40891;47.242;8.648;2023-04-25T05:38:47;3.23;;;1.40;;
54993;SDS011;40891;47.242;8.648;2023-04-25T05:41:13;8.47;;;1.70;;
54993;SDS011;40891;47.242;8.648;2023-04-25T05:43:38;5.03;;;1.70;;
54993;SDS011;40891;47.242;8.648;2023-04-25T05:46:03;3.27;;;1.37;;
54993;SDS011;40891;47.242;8.648;2023-04-25T05:48:29;3.83;;;1.53;;
54993;SDS011;40891;47.242;8.648;2023-04-25T05:50:55;2.70;;;1.40;;
54993;SDS011;40891;47.242;8.648;2023-04-25T05:53:20;5.43;;;1.43;;
54993;SDS011;40891;47.242;8.648;2023-04-25T05:55:46;6.60;;;1.60;;
54993;SDS011;40891;47.242;8.648;2023-04-25T05:58:12;4.77;;;1.67;;
54993;SDS011;40891;47.242;8.648;2023-04-25T06:00:37;6.60;;;1.30;;
54993;SDS011;40891;47.242;8.648;2023-04-25T06:03:03;4.20;;;1.27;;
54993;SDS011;40891;47.242;8.648;2023-04-25T06:05:28;4.63;;;1.43;;
54993;SDS011;40891;47.242;8.648;2023-04-25T06:07:54;3.80;;;1.23;;
54993;SDS011;40891;47.242;8.648;2023-04-25T06:10:19;3.67;;;1.17;;
54993;SDS011;40891;47.242;8.648;2023-04-25T06:12:45;4.50;;;1.47;;
54993;SDS011;40891;47.242;8.648;2023-04-25T06:15:10;3.63;;;1.60;;
54993;SDS011;40891;47.242;8.648;2023-04-25T06:17:35;3.40;;;1.43;;
54993;SDS011;40891;47.242;8.648;2023-04-25T06:20:01;6.73;;;1.33;;
54993;SDS011;40891;47.242;8.648;2023-04-25T06:22:28;3.50;;;1.80;;
54993;SDS011;40891;47.242;8.648;2023-04-25T06:24:54;5.17;;;1.43;;
54993;SDS011;40891;47.242;8.648;2023-04-25T06:27:22;3.97;;;1.37;;
54993;SDS011;40891;47.242;8.648;2023-04-25T06:29:47;3.10;;;1.87;;
54993;SDS011;40891;47.242;8.648;2023-04-25T06:32:12;5.93;;;1.93;;
54993;SDS011;40891;47.242;8.648;2023-04-25T06:34:38;5.90;;;1.70;;
54993;SDS011;40891;47.242;8.648;2023-04-25T06:37:03;5.73;;;1.50;;
54993;SDS011;40891;47.242;8.648;2023-04-25T06:39:28;3.63;;;1.63;;
54993;SDS011;40891;47.242;8.648;2023-04-25T06:41:54;3.77;;;1.60;;
54993;SDS011;40891;47.242;8.648;2023-04-25T06:44:19;6.60;;;1.93;;
54993;SDS011;40891;47.242;8.648;2023-04-25T06:46:44;4.40;;;1.37;;
54993;SDS011;40891;47.242;8.648;2023-04-25T06:49:10;3.30;;;1.27;;
54993;SDS011;40891;47.242;8.648;2023-04-25T06:51:35;5.40;;;2.07;;
54993;SDS011;40891;47.242;8.648;2023-04-25T06:54:00;3.77;;;1.90;;
54993;SDS011;40891;47.242;8.648;2023-04-25T06:56:26;2.10;;;1.37;;
54993;SDS011;40891;47.242;8.648;2023-04-25T06:58:52;4.30;;;1.50;;
54993;SDS011;40891;47.242;8.648;2023-04-25T07:01:18;5.43;;;2.03;;
54993;SDS011;40891;47.242;8.648;2023-04-25T07:03:43;7.23;;;1.90;;
54993;SDS011;40891;47.242;8.648;2023-04-25T07:06:08;6.13;;;2.30;;
54993;SDS011;40891;47.242;8.648;2023-04-25T07:08:34;5.47;;;1.97;;
54993;SDS011;40891;47.242;8.648;2023-04-25T07:10:59;2.67;;;1.10;;
54993;SDS011;40891;47.242;8.648;2023-04-25T07:13:25;4.10;;;1.37;;
54993;SDS011;40891;47.242;8.648;2023-04-25T07:15:50;3.30;;;1.40;;
54993;SDS011;40891;47.242;8.648;2023-04-25T07:18:15;2.80;;;1.57;;
54993;SDS011;40891;47.242;8.648;2023-04-25T07:20:41;5.50;;;2.03;;
54993;SDS011;40891;47.242;8.648;2023-04-25T07:23:06;3.17;;;1.60;;
54993;SDS011;40891;47.242;8.648;2023-04-25T07:25:31;2.73;;;1.50;;
54993;SDS011;40891;47.242;8.648;2023-04-25T07:27:57;8.03;;;1.80;;
54993;SDS011;40891;47.242;8.648;2023-04-25T07:30:22;2.30;;;1.43;;
54993;SDS011;40891;47.242;8.648;2023-04-25T07:32:48;4.17;;;1.87;;
54993;SDS011;40891;47.242;8.648;2023-04-25T07:35:15;4.27;;;2.10;;
54993;SDS011;40891;47.242;8.648;2023-04-25T07:37:40;6.53;;;2.70;;
54993;SDS011;40891;47.242;8.648;2023-04-25T07:40:06;4.13;;;1.83;;
54993;SDS011;40891;47.242;8.648;2023-04-25T07:42:32;7.43;;;2.27;;
54993;SDS011;40891;47.242;8.648;2023-04-25T07:44:58;3.90;;;1.40;;
54993;SDS011;40891;47.242;8.648;2023-04-25T07:47:23;4.77;;;1.40;;
54993;SDS011;40891;47.242;8.648;2023-04-25T07:49:48;3.90;;;1.60;;
54993;SDS011;40891;47.242;8.648;2023-04-25T07:52:14;6.17;;;1.77;;
54993;SDS011;40891;47.242;8.648;2023-04-25T07:54:39;3.53;;;1.77;;
54993;SDS011;40891;47.242;8.648;2023-04-25T07:57:05;4.40;;;1.87;;
54993;SDS011;40891;47.242;8.648;2023-04-25T07:59:33;4.17;;;1.87;;
54993;SDS011;40891;47.242;8.648;2023-04-25T08:01:59;3.40;;;1.83;;
54993;SDS011;40891;47.242;8.648;2023-04-25T08:04:25;4.90;;;1.83;;
54993;SDS011;40891;47.242;8.648;2023-04-25T08:06:50;4.77;;;1.80;;
54993;SDS011;40891;47.242;8.648;2023-04-25T08:09:16;2.53;;;1.40;;
54993;SDS011;40891;47.242;8.648;2023-04-25T08:11:42;3.07;;;1.70;;
54993;SDS011;40891;47.242;8.648;2023-04-25T08:14:07;2.60;;;1.60;;
54993;SDS011;40891;47.242;8.648;2023-04-25T08:16:33;3.73;;;1.87;;
54993;SDS011;40891;47.242;8.648;2023-04-25T08:18:59;8.37;;;2.17;;
54993;SDS011;40891;47.242;8.648;2023-04-25T08:21:24;3.33;;;1.70;;
54993;SDS011;40891;47.242;8.648;2023-04-25T08:23:51;6.20;;;1.67;;
54993;SDS011;40891;47.242;8.648;2023-04-25T08:26:17;3.17;;;1.80;;
54993;SDS011;40891;47.242;8.648;2023-04-25T08:28:42;3.80;;;1.93;;
54993;SDS011;40891;47.242;8.648;2023-04-25T08:31:08;8.20;;;1.90;;
54993;SDS011;40891;47.242;8.648;2023-04-25T08:33:33;5.57;;;2.07;;
54993;SDS011;40891;47.242;8.648;2023-04-25T08:35:59;3.77;;;1.80;;
54993;SDS011;40891;47.242;8.648;2023-04-25T08:38:24;2.30;;;1.73;;
54993;SDS011;40891;47.242;8.648;2023-04-25T08:40:50;3.73;;;1.70;;
54993;SDS011;40891;47.242;8.648;2023-04-25T08:43:17;5.30;;;2.10;;
54993;SDS011;40891;47.242;8.648;2023-04-25T08:45:44;4.03;;;1.80;;
54993;SDS011;40891;47.242;8.648;2023-04-25T08:48:13;3.33;;;1.73;;
54993;SDS011;40891;47.242;8.648;2023-04-25T08:50:43;3.17;;;1.30;;
54993;SDS011;40891;47.242;8.648;2023-04-25T08:53:14;3.70;;;1.97;;
54993;SDS011;40891;47.242;8.648;2023-04-25T08:55:43;3.57;;;1.67;;
54993;SDS011;40891;47.242;8.648;2023-04-25T08:58:10;5.33;;;2.00;;
54993;SDS011;40891;47.242;8.648;2023-04-25T09:00:36;4.20;;;2.40;;
54993;SDS011;40891;47.242;8.648;2023-04-25T09:03:02;4.13;;;1.77;;
54993;SDS011;40891;47.242;8.648;2023-04-25T09:05:28;2.50;;;1.57;;
54993;SDS011;40891;47.242;8.648;2023-04-25T09:07:54;3.13;;;1.50;;
54993;SDS011;40891;47.242;8.648;2023-04-25T09:10:19;2.90;;;1.47;;
54993;SDS011;40891;47.242;8.648;2023-04-25T09:12:44;2.63;;;1.33;;
54993;SDS011;40891;47.242;8.648;2023-04-25T09:15:21;4.40;;;1.73;;
54993;SDS011;40891;47.242;8.648;2023-04-25T09:17:54;1.87;;;1.40;;
54993;SDS011;40891;47.242;8.648;2023-04-25T09:20:21;2.30;;;1.57;;
54993;SDS011;40891;47.242;8.648;2023-04-25T09:22:46;4.77;;;1.50;;
54993;SDS011;40891;47.242;8.648;2023-04-25T09:25:12;2.50;;;1.30;;
54993;SDS011;40891;47.242;8.648;2023-04-25T09:27:51;3.37;;;1.60;;
54993;SDS011;40891;47.242;8.648;2023-04-25T09:30:18;3.83;;;1.67;;
54993;SDS011;40891;47.242;8.648;2023-04-25T09:32:44;4.37;;;1.90;;
54993;SDS011;40891;47.242;8.648;2023-04-25T09:35:10;4.70;;;1.73;;
54993;SDS011;40891;47.242;8.648;2023-04-25T09:37:36;3.20;;;1.40;;
54993;SDS011;40891;47.242;8.648;2023-04-25T09:40:04;2.03;;;1.30;;
54993;SDS011;40891;47.242;8.648;2023-04-25T09:42:32;6.57;;;1.77;;
54993;SDS011;40891;47.242;8.648;2023-04-25T09:45:01;3.30;;;1.40;;
54993;SDS011;40891;47.242;8.648;2023-04-25T09:47:27;1.80;;;1.37;;
54993;SDS011;40891;47.242;8.648;2023-04-25T09:49:53;4.47;;;2.00;;
54993;SDS011;40891;47.242;8.648;2023-04-25T09:52:21;3.07;;;2.40;;
54993;SDS011;40891;47.242;8.648;2023-04-25T09:54:48;6.90;;;3.43;;
54993;SDS011;40891;47.242;8.648;2023-04-25T09:57:18;2.67;;;1.40;;
54993;SDS011;40891;47.242;8.648;2023-04-25T09:59:46;7.80;;;3.83;;
54993;SDS011;40891;47.242;8.648;2023-04-25T10:02:14;10.93;;;5.13;;
54993;SDS011;40891;47.242;8.648;2023-04-25T10:04:41;2.10;;;1.50;;
54993;SDS011;40891;47.242;8.648;2023-04-25T10:07:09;3.60;;;1.60;;
54993;SDS011;40891;47.242;8.648;2023-04-25T10:09:37;3.30;;;1.60;;
54993;SDS011;40891;47.242;8.648;2023-04-25T10:12:04;3.70;;;1.40;;
54993;SDS011;40891;47.242;8.648;2023-04-25T10:14:31;1.33;;;1.13;;
54993;SDS011;40891;47.242;8.648;2023-04-25T10:16:57;1.90;;;0.87;;
54993;SDS011;40891;47.242;8.648;2023-04-25T10:19:24;2.67;;;1.40;;
54993;SDS011;40891;47.242;8.648;2023-04-25T10:21:52;2.53;;;0.90;;
54993;SDS011;40891;47.242;8.648;2023-04-25T10:24:21;1.20;;;0.80;;
54993;SDS011;40891;47.242;8.648;2023-04-25T10:26:47;2.70;;;0.60;;
54993;SDS011;40891;47.242;8.648;2023-04-25T10:29:21;1.50;;;0.90;;
54993;SDS011;40891;47.242;8.648;2023-04-25T10:31:50;1.57;;;1.00;;
54993;SDS011;40891;47.242;8.648;2023-04-25T10:34:16;2.87;;;1.00;;
54993;SDS011;40891;47.242;8.648;2023-04-25T10:36:42;1.77;;;1.10;;
54993;SDS011;40891;47.242;8.648;2023-04-25T10:39:08;3.07;;;1.13;;
54993;SDS011;40891;47.242;8.648;2023-04-25T10:41:45;1.37;;;1.00;;
54993;SDS011;40891;47.242;8.648;2023-04-25T10:44:15;1.00;;;0.90;;
54993;SDS011;40891;47.242;8.648;2023-04-25T10:46:40;1.53;;;1.27;;
54993;SDS011;40891;47.242;8.648;2023-04-25T10:49:06;1.87;;;1.30;;
54993;SDS011;40891;47.242;8.648;2023-04-25T10:51:33;1.20;;;0.90;;
54993;SDS011;40891;47.242;8.648;2023-04-25T10:54:01;1.53;;;0.90;;
54993;SDS011;40891;47.242;8.648;2023-04-25T10:56:29;1.80;;;0.90;;
54993;SDS011;40891;47.242;8.648;2023-04-25T10:59:10;2.53;;;1.13;;
54993;SDS011;40891;47.242;8.648;2023-04-25T11:01:37;2.23;;;1.20;;
54993;SDS011;40891;47.242;8.648;2023-04-25T11:04:19;1.70;;;1.10;;
54993;SDS011;40891;47.242;8.648;2023-04-25T11:06:58;2.40;;;1.10;;
54993;SDS011;40891;47.242;8.648;2023-04-25T11:09:31;2.83;;;0.90;;
54993;SDS011;40891;47.242;8.648;2023-04-25T11:11:59;1.40;;;1.03;;
54993;SDS011;40891;47.242;8.648;2023-04-25T11:14:25;2.53;;;1.20;;
54993;SDS011;40891;47.242;8.648;2023-04-25T11:16:55;2.70;;;1.10;;
54993;SDS011;40891;47.242;8.648;2023-04-25T11:19:22;1.77;;;1.03;;
54993;SDS011;40891;47.242;8.648;2023-04-25T11:21:48;2.37;;;1.57;;
54993;SDS011;40891;47.242;8.648;2023-04-25T11:24:15;2.40;;;1.43;;
54993;SDS011;40891;47.242;8.648;2023-04-25T11:26:42;2.93;;;1.47;;
54993;SDS011;40891;47.242;8.648;2023-04-25T11:29:08;3.10;;;1.60;;
54993;SDS011;40891;47.242;8.648;2023-04-25T11:31:33;1.60;;;1.40;;
54993;SDS011;40891;47.242;8.648;2023-04-25T11:33:58;4.20;;;1.30;;
54993;SDS011;40891;47.242;8.648;2023-04-25T11:36:25;2.43;;;1.50;;
54993;SDS011;40891;47.242;8.648;2023-04-25T11:38:51;3.30;;;1.33;;
54993;SDS011;40891;47.242;8.648;2023-04-25T11:41:17;4.80;;;1.90;;
54993;SDS011;40891;47.242;8.648;2023-04-25T11:43:43;4.63;;;2.03;;
54993;SDS011;40891;47.242;8.648;2023-04-25T11:46:09;2.43;;;1.60;;
54993;SDS011;40891;47.242;8.648;2023-04-25T11:48:38;2.40;;;1.60;;
54993;SDS011;40891;47.242;8.648;2023-04-25T11:51:07;3.03;;;1.60;;
54993;SDS011;40891;47.242;8.648;2023-04-25T11:53:33;2.50;;;1.30;;
54993;SDS011;40891;47.242;8.648;2023-04-25T11:55:59;1.93;;;1.33;;
54993;SDS011;40891;47.242;8.648;2023-04-25T11:58:25;1.87;;;1.10;;
54993;SDS011;40891;47.242;8.648;2023-04-25T12:00:51;2.07;;;1.40;;
54993;SDS011;40891;47.242;8.648;2023-04-25T12:03:17;2.10;;;1.40;;
54993;SDS011;40891;47.242;8.648;2023-04-25T12:05:44;3.20;;;1.60;;
54993;SDS011;40891;47.242;8.648;2023-04-25T12:08:11;2.10;;;1.20;;
54993;SDS011;40891;47.242;8.648;2023-04-25T12:10:40;1.47;;;1.17;;
54993;SDS011;40891;47.242;8.648;2023-04-25T12:13:20;1.50;;;1.13;;
54993;SDS011;40891;47.242;8.648;2023-04-25T12:15:47;2.63;;;1.10;;
54993;SDS011;40891;47.242;8.648;2023-04-25T12:18:12;2.00;;;1.03;;
54993;SDS011;40891;47.242;8.648;2023-04-25T12:20:38;1.77;;;0.90;;
54993;SDS011;40891;47.242;8.648;2023-04-25T12:23:05;1.20;;;0.90;;
54993;SDS011;40891;47.242;8.648;2023-04-25T12:28:14;2.60;;;0.90;;
54993;SDS011;40891;47.242;8.648;2023-04-25T12:30:57;0.60;;;0.60;;
54993;SDS011;40891;47.242;8.648;2023-04-25T12:33:25;1.30;;;1.00;;
54993;SDS011;40891;47.242;8.648;2023-04-25T12:35:51;1.92;;;0.80;;
54993;SDS011;40891;47.242;8.648;2023-04-25T12:38:21;1.33;;;0.70;;
54993;SDS011;40891;47.242;8.648;2023-04-25T12:40:51;1.17;;;0.90;;
54993;SDS011;40891;47.242;8.648;2023-04-25T12:43:17;0.95;;;0.77;;
54993;SDS011;40891;47.242;8.648;2023-04-25T12:45:52;0.95;;;0.80;;
54993;SDS011;40891;47.242;8.648;2023-04-25T12:48:18;2.75;;;0.90;;
54993;SDS011;40891;47.242;8.648;2023-04-25T12:50:44;1.15;;;0.85;;
54993;SDS011;40891;47.242;8.648;2023-04-25T12:53:12;2.15;;;0.90;;
54993;SDS011;40891;47.242;8.648;2023-04-25T12:55:37;1.95;;;1.05;;
54993;SDS011;40891;47.242;8.648;2023-04-25T12:58:03;1.42;;;1.00;;
54993;SDS011;40891;47.242;8.648;2023-04-25T13:00:29;2.15;;;0.95;;
54993;SDS011;40891;47.242;8.648;2023-04-25T13:02:54;4.78;;;0.80;;
54993;SDS011;40891;47.242;8.648;2023-04-25T13:05:20;1.08;;;0.90;;
54993;SDS011;40891;47.242;8.648;2023-04-25T13:07:45;0.85;;;0.85;;
54993;SDS011;40891;47.242;8.648;2023-04-25T13:10:11;2.20;;;0.93;;
54993;SDS011;40891;47.242;8.648;2023-04-25T13:12:36;2.10;;;1.30;;
54993;SDS011;40891;47.242;8.648;2023-04-25T13:15:02;1.10;;;0.90;;
54993;SDS011;40891;47.242;8.648;2023-04-25T13:17:27;3.03;;;1.20;;
54993;SDS011;40891;47.242;8.648;2023-04-25T13:19:52;2.47;;;1.05;;
54993;SDS011;40891;47.242;8.648;2023-04-25T13:22:18;1.83;;;0.90;;
54993;SDS011;40891;47.242;8.648;2023-04-25T13:24:45;1.92;;;0.90;;
54993;SDS011;40891;47.242;8.648;2023-04-25T13:27:10;1.33;;;1.00;;
54993;SDS011;40891;47.242;8.648;2023-04-25T13:29:36;1.08;;;0.88;;
54993;SDS011;40891;47.242;8.648;2023-04-25T13:32:03;0.70;;;0.70;;
54993;SDS011;40891;47.242;8.648;2023-04-25T13:34:28;1.05;;;0.70;;
54993;SDS011;40891;47.242;8.648;2023-04-25T13:36:54;0.70;;;0.60;;
54993;SDS011;40891;47.242;8.648;2023-04-25T13:39:20;1.08;;;0.60;;
54993;SDS011;40891;47.242;8.648;2023-04-25T13:41:45;1.10;;;0.90;;
54993;SDS011;40891;47.242;8.648;2023-04-25T13:44:11;1.50;;;0.90;;
54993;SDS011;40891;47.242;8.648;2023-04-25T13:46:36;0.70;;;0.70;;
54993;SDS011;40891;47.242;8.648;2023-04-25T13:49:02;1.30;;;0.80;;
54993;SDS011;40891;47.242;8.648;2023-04-25T13:51:28;1.40;;;0.90;;
54993;SDS011;40891;47.242;8.648;2023-04-25T13:53:53;1.83;;;0.70;;
54993;SDS011;40891;47.242;8.648;2023-04-25T13:56:19;2.80;;;0.90;;
54993;SDS011;40891;47.242;8.648;2023-04-25T13:58:45;1.50;;;0.95;;
54993;SDS011;40891;47.242;8.648;2023-04-25T14:01:10;1.05;;;0.85;;
54993;SDS011;40891;47.242;8.648;2023-04-25T14:03:35;2.05;;;1.10;;
54993;SDS011;40891;47.242;8.648;2023-04-25T14:06:01;1.88;;;1.08;;
54993;SDS011;40891;47.242;8.648;2023-04-25T14:08:26;1.57;;;1.00;;
54993;SDS011;40891;47.242;8.648;2023-04-25T14:10:52;1.13;;;0.75;;
54993;SDS011;40891;47.242;8.648;2023-04-25T14:13:17;1.95;;;0.80;;
54993;SDS011;40891;47.242;8.648;2023-04-25T14:15:43;2.42;;;0.80;;
54993;SDS011;40891;47.242;8.648;2023-04-25T14:18:09;0.68;;;0.68;;
54993;SDS011;40891;47.242;8.648;2023-04-25T14:20:34;2.75;;;0.90;;
54993;SDS011;40891;47.242;8.648;2023-04-25T14:22:59;0.70;;;0.70;;
54993;SDS011;40891;47.242;8.648;2023-04-25T14:25:25;2.03;;;1.02;;
54993;SDS011;40891;47.242;8.648;2023-04-25T14:27:50;1.23;;;1.05;;
54993;SDS011;40891;47.242;8.648;2023-04-25T14:30:19;2.13;;;0.93;;
54993;SDS011;40891;47.242;8.648;2023-04-25T14:32:46;1.88;;;0.85;;
54993;SDS011;40891;47.242;8.648;2023-04-25T14:35:12;0.68;;;0.68;;
54993;SDS011;40891;47.242;8.648;2023-04-25T14:37:38;2.72;;;0.80;;
54993;SDS011;40891;47.242;8.648;2023-04-25T14:40:04;2.05;;;0.88;;
54993;SDS011;40891;47.242;8.648;2023-04-25T14:42:30;1.17;;;0.70;;
54993;SDS011;40891;47.242;8.648;2023-04-25T14:44:55;0.88;;;0.73;;